Huvudsida
METAR-TAF:

METAR-TAF

Flygplatser :

Riyadh, Saudiarabien

latitud: 24-43N, longitud: 046-44E, höjd: 635 m

Aktuellt väderrapport

Denna rapport gjordes för 15 timmar och 48 minuter sedan, klockan 12:00 UTC
Vind 10 kt från nord
Temperatur 16°C
Fuktighet 100%
Tryck 1017 hPa
Sikt: 4000 m
Brutna moln på en höjd av 3000 ft
Mulet på en höjd av 8000 ft
fuktdis

METAR: OERY 191200Z 01010KT 4000 BR BKN030 OVC080 16/16 Q1017

Tid: 06:48 (03:48 UTC)

Väderprognos

Denna rapport gjordes för 4 timmar och 48 minuter sedan, klockan 23:00 UTC
Prognos gäller från 20 kl. 00 UTC till 21 kl. 06 UTC
Vind 3 kt varierande vindriktning
Sikt: 8000 m
Spridda moln på en höjd av 4000 ft
Spridda moln på en höjd av 8000 ft
Temporärt
från 20 kl. 00 UTC till 20 kl. 04 UTC
Sikt: 5000 m
fuktdis
Blir
från 20 kl. 10 UTC till 20 kl. 12 UTC
Vind 12 kt från nord/nordost

TAF: OERY 192300Z 2000/2106 VRB03KT 8000 SCT040 SCT080 TEMPO 2000/2004 5000 BR BECMG 2010/2012 02012KT

Aktuella väderrapporter och prognoser från 4000 flygplatser (METAR- och TAF-rapporter).

De tillgängliga stationerna syns som gula och röda prickar på kartan.

För musen över prickarna för att se namnen på stationerna.

Klicka sedan för att få väderrapporter och prognoser.

För att ändra kartan: Klicka på de gröna knapparna med ett svart kors på för att zooma in; den gröna knappen med ett streck på för att zooma ut; eller på de gröna pilarna för angränsande kartor.


METAR-TAF: